Time;durP1;ratioP1;P1;durP2;ratioP2;P2;SDS_P1;SDS_P2;PMS_P1;PMS_P2;Temp;Humidity;BMP_temperature;BMP_pressure;BME280_temperature;BME280_humidity;BME280_pressure;Samples;Min_cycle;Max_cycle;Signal;HPM_P1;HPM_P2
2022/11/14 00:01:07;;;;;;;27.80;14.83;;;;;;;8.34;82.97;100659.06;5013865;28;20262;-66
2022/11/14 00:03:36;;;;;;;27.43;14.23;;;;;;;8.32;83.47;100663.63;5012518;28;20489;-66
2022/11/14 00:06:06;;;;;;;23.43;13.63;;;;;;;8.43;83.19;100666.22;5010477;28;20216;-65
2022/11/14 00:08:34;;;;;;;24.13;13.70;;;;;;;8.43;82.89;100660.94;5007424;28;20211;-66
2022/11/14 00:11:02;;;;;;;28.10;13.80;;;;;;;8.47;83.21;100667.59;5010601;28;20236;-66
2022/11/14 00:13:29;;;;;;;25.40;14.30;;;;;;;8.60;82.58;100670.91;5011900;28;20211;-66
2022/11/14 00:15:57;;;;;;;30.73;16.03;;;;;;;8.60;82.57;100676.19;5012475;28;20205;-66
2022/11/14 00:18:24;;;;;;;29.43;15.77;;;;;;;8.66;82.22;100666.88;5022173;28;20212;-66
2022/11/14 00:20:53;;;;;;;27.30;13.63;;;;;;;8.69;82.23;100674.56;5011552;28;20239;-65
2022/11/14 00:23:22;;;;;;;28.00;15.00;;;;;;;8.79;81.93;100680.75;5016116;28;20204;-64
2022/11/14 00:25:49;;;;;;;32.97;15.07;;;;;;;8.73;81.64;100673.31;5010745;28;20244;-64
2022/11/14 00:28:17;;;;;;;27.13;15.33;;;;;;;8.68;82.16;100672.88;5014464;28;20215;-65
2022/11/14 00:30:46;;;;;;;27.57;14.73;;;;;;;8.81;82.00;100664.72;5011701;28;20242;-65
2022/11/14 00:33:14;;;;;;;28.60;15.43;;;;;;;8.91;81.56;100660.31;5013585;28;20220;-65
2022/11/14 00:35:51;;;;;;;29.93;15.10;;;;;;;8.86;81.34;100662.53;5017412;28;20208;-65
2022/11/14 00:38:21;;;;;;;28.23;14.77;;;;;;;8.68;82.59;100655.22;5011756;28;20239;-64
2022/11/14 00:40:48;;;;;;;26.73;15.07;;;;;;;8.62;83.18;100655.72;5017100;28;20210;-65
2022/11/14 00:43:16;;;;;;;29.93;14.93;;;;;;;8.67;83.53;100655.34;5018374;28;20208;-63
2022/11/14 00:45:44;;;;;;;34.47;15.67;;;;;;;8.79;83.07;100650.81;5015108;28;20359;-64
2022/11/14 00:48:11;;;;;;;29.10;15.03;;;;;;;8.91;82.55;100649.75;5024094;28;20212;-65
2022/11/14 00:50:39;;;;;;;29.53;14.60;;;;;;;8.96;82.15;100647.56;5015847;28;20220;-64
2022/11/14 00:53:07;;;;;;;30.03;15.23;;;;;;;8.97;82.19;100650.03;5021105;28;20233;-64
2022/11/14 00:55:36;;;;;;;29.43;14.87;;;;;;;9.10;81.53;100644.53;5016204;28;20223;-64
2022/11/14 00:58:03;;;;;;;31.97;16.20;;;;;;;9.14;81.36;100656.53;5017227;28;20238;-64
2022/11/14 01:00:31;;;;;;;28.20;15.77;;;;;;;9.17;81.27;100643.00;5016448;28;20220;-64
2022/11/14 01:02:59;;;;;;;33.37;15.90;;;;;;;9.17;81.26;100637.72;5012425;28;20204;-65
2022/11/14 01:05:27;;;;;;;30.20;16.27;;;;;;;9.19;81.63;100645.53;5013335;28;20205;-65
2022/11/14 01:07:55;;;;;;;27.50;14.93;;;;;;;9.24;81.36;100636.19;5019542;28;20204;-65
2022/11/14 01:10:23;;;;;;;29.67;16.37;;;;;;;9.25;81.14;100629.94;5012739;28;20399;-65
2022/11/14 01:12:52;;;;;;;30.77;16.20;;;;;;;9.22;81.16;100635.53;5011866;28;20231;-65
2022/11/14 01:15:19;;;;;;;30.43;16.13;;;;;;;9.10;81.50;100633.09;5018003;28;20207;-65
2022/11/14 01:17:47;;;;;;;33.60;17.03;;;;;;;8.88;83.05;100634.97;5014311;28;20258;-65
2022/11/14 01:20:15;;;;;;;31.07;16.13;;;;;;;8.90;83.73;100638.31;5018948;28;20270;-65
2022/11/14 01:22:43;;;;;;;34.60;17.20;;;;;;;8.85;84.65;100632.63;5016110;28;20661;-65
2022/11/14 01:25:10;;;;;;;33.27;16.93;;;;;;;8.84;84.96;100625.66;5013424;28;20586;-66
2022/11/14 01:27:38;;;;;;;33.07;16.70;;;;;;;8.98;84.64;100624.44;5016800;28;20215;-66
2022/11/14 01:30:08;;;;;;;33.83;16.87;;;;;;;9.09;84.23;100621.69;5019019;28;20224;-65
2022/11/14 01:32:36;;;;;;;31.77;16.80;;;;;;;9.22;83.32;100611.72;5018579;28;20215;-66
2022/11/14 01:35:04;;;;;;;33.23;17.37;;;;;;;9.32;82.98;100615.19;5017645;28;20274;-66
2022/11/14 01:37:31;;;;;;;32.87;15.70;;;;;;;9.36;82.74;100610.47;5014695;28;20247;-66
2022/11/14 01:39:59;;;;;;;37.40;18.00;;;;;;;9.33;82.97;100602.78;5016351;28;20212;-66
2022/11/14 01:42:27;;;;;;;32.93;16.83;;;;;;;9.31;82.98;100599.47;5014849;28;20544;-66
2022/11/14 01:44:55;;;;;;;41.33;20.73;;;;;;;9.35;82.97;100585.81;5012848;28;20211;-66
2022/11/14 01:47:28;;;;;;;34.83;17.70;;;;;;;9.44;82.58;100584.16;5022688;28;20208;-65
2022/11/14 01:49:59;;;;;;;36.37;17.60;;;;;;;9.50;81.77;100580.13;5012900;28;20211;-65
2022/11/14 01:52:31;;;;;;;42.70;19.07;;;;;;;9.57;81.38;100579.44;5010597;28;20216;-66
2022/11/14 01:55:01;;;;;;;39.97;19.10;;;;;;;9.66;80.99;100573.31;5013137;28;20209;-66
2022/11/14 01:57:33;;;;;;;39.43;19.60;;;;;;;9.64;80.97;100572.59;5013467;28;20921;-66
2022/11/14 02:00:04;;;;;;;41.33;19.03;;;;;;;9.67;80.65;100574.16;5010682;28;20653;-66
2022/11/14 02:02:33;;;;;;;40.40;18.80;;;;;;;9.60;80.88;100562.41;5012190;28;22165;-66
2022/11/14 02:05:05;;;;;;;38.83;18.80;;;;;;;9.55;81.35;100549.63;5010848;28;20213;-66
2022/11/14 02:07:36;;;;;;;41.20;19.67;;;;;;;9.54;81.24;100545.28;5017904;28;20645;-65
2022/11/14 02:10:07;;;;;;;40.97;19.27;;;;;;;9.50;81.51;100543.88;5013351;28;20323;-65
2022/11/14 02:12:36;;;;;;;39.13;19.47;;;;;;;9.49;81.61;100534.31;5015351;28;20212;-66
2022/11/14 02:15:04;;;;;;;40.17;20.13;;;;;;;9.53;81.64;100540.13;5011475;28;20787;-65
2022/11/14 02:17:34;;;;;;;35.97;19.60;;;;;;;9.60;81.32;100538.59;5012611;28;20241;-65
2022/11/14 02:20:16;;;;;;;41.73;19.87;;;;;;;9.63;80.98;100525.09;5008579;28;20212;-66
2022/11/14 02:22:44;;;;;;;36.97;18.83;;;;;;;9.70;80.53;100534.13;5017146;28;20762;-66
2022/11/14 02:25:14;;;;;;;37.20;19.63;;;;;;;9.71;80.38;100536.66;5011975;28;20267;-66
2022/11/14 02:27:43;;;;;;;35.93;19.47;;;;;;;9.72;80.34;100535.66;5013687;28;20199;-66
2022/11/14 02:30:14;;;;;;;38.87;19.43;;;;;;;9.67;80.17;100531.78;5018695;28;20201;-66
2022/11/14 02:32:41;;;;;;;39.13;19.77;;;;;;;9.60;80.67;100536.78;5014061;28;20215;-66
2022/11/14 02:35:30;;;;;;;36.93;17.73;;;;;;;9.58;80.45;100540.56;5014491;28;20244;-66
2022/11/14 02:37:58;;;;;;;32.80;17.30;;;;;;;9.56;80.47;100542.50;5015193;28;20236;-66
2022/11/14 02:40:26;;;;;;;33.90;18.40;;;;;;;9.56;80.45;100534.56;5017916;28;20205;-66
2022/11/14 02:42:53;;;;;;;30.27;16.20;;;;;;;9.50;80.81;100527.19;5019044;28;20217;-66
2022/11/14 02:45:21;;;;;;;41.43;17.87;;;;;;;9.51;80.72;100518.25;5015597;28;20254;-65
2022/11/14 02:47:49;;;;;;;41.00;18.07;;;;;;;9.51;80.97;100523.53;5013662;28;20267;-64
2022/11/14 02:50:17;;;;;;;34.73;17.20;;;;;;;9.52;80.70;100515.47;5018161;28;20207;-64
2022/11/14 02:52:46;;;;;;;38.50;18.93;;;;;;;9.51;80.86;100516.44;5012083;28;20219;-64
2022/11/14 02:55:21;;;;;;;37.27;19.10;;;;;;;9.55;80.63;100506.41;5015966;28;20228;-64
2022/11/14 02:57:48;;;;;;;34.60;17.50;;;;;;;9.53;80.53;100508.38;5014847;28;20239;-65
2022/11/14 03:00:17;;;;;;;36.87;18.10;;;;;;;9.57;80.56;100509.78;5006868;28;20211;-65
2022/11/14 03:02:46;;;;;;;33.50;17.70;;;;;;;9.60;80.44;100506.81;5014542;28;20251;-64
2022/11/14 03:05:14;;;;;;;32.43;17.70;;;;;;;9.61;80.42;100503.19;5011268;28;20258;-63
2022/11/14 03:07:41;;;;;;;38.70;19.30;;;;;;;9.52;80.62;100502.22;5013583;28;20263;-64
2022/11/14 03:10:12;;;;;;;36.73;18.20;;;;;;;9.54;80.71;100491.50;5020375;28;22056;-64
2022/11/14 03:12:40;;;;;;;35.57;18.20;;;;;;;9.48;80.69;100505.31;5013724;28;20202;-64
2022/11/14 03:15:09;;;;;;;35.03;18.17;;;;;;;9.47;81.20;100498.34;5009684;28;20356;-65
2022/11/14 03:17:37;;;;;;;37.10;18.43;;;;;;;9.39;81.28;100494.59;5008943;28;20216;-66
2022/11/14 03:20:06;;;;;;;40.97;19.10;;;;;;;9.42;81.62;100496.09;5013086;28;20639;-65
2022/11/14 03:22:33;;;;;;;42.50;19.57;;;;;;;9.41;81.44;100489.97;5013907;28;20216;-65
2022/11/14 03:25:01;;;;;;;38.40;18.63;;;;;;;9.42;81.21;100483.72;5012200;28;20205;-66
2022/11/14 03:27:30;;;;;;;37.40;17.63;;;;;;;9.27;81.66;100486.91;5010638;28;20233;-65
2022/11/14 03:29:58;;;;;;;39.40;19.23;;;;;;;9.25;82.07;100481.75;5009751;28;20204;-65
2022/11/14 03:32:26;;;;;;;39.10;18.47;;;;;;;9.26;81.86;100480.78;5013111;28;20260;-67
2022/11/14 03:34:53;;;;;;;33.63;18.03;;;;;;;9.31;81.98;100489.16;5015165;28;20212;-66
2022/11/14 03:37:21;;;;;;;35.77;17.87;;;;;;;9.43;81.63;100482.75;5016731;28;20211;-67
2022/11/14 03:39:49;;;;;;;40.03;18.90;;;;;;;9.58;80.82;100484.97;5008445;28;20324;-66
2022/11/14 03:42:16;;;;;;;41.67;18.90;;;;;;;9.61;80.25;100495.25;5010049;28;20212;-66
2022/11/14 03:44:45;;;;;;;36.30;18.87;;;;;;;9.64;80.03;100497.63;5009147;28;20263;-66
2022/11/14 03:47:13;;;;;;;36.40;17.87;;;;;;;9.56;80.02;100493.06;5007224;28;20591;-66
2022/11/14 03:49:43;;;;;;;36.63;18.57;;;;;;;9.56;80.16;100492.22;5011236;28;20341;-65
2022/11/14 03:52:11;;;;;;;33.20;18.10;;;;;;;9.52;80.46;100498.75;5007497;28;20212;-66
2022/11/14 03:54:39;;;;;;;42.20;18.63;;;;;;;9.56;80.27;100493.06;5008827;28;20657;-66
2022/11/14 03:57:06;;;;;;;36.53;17.53;;;;;;;9.56;80.60;100492.22;5005822;28;20220;-67
2022/11/14 03:59:34;;;;;;;33.50;17.23;;;;;;;9.58;80.22;100490.25;5011338;28;20569;-66
2022/11/14 04:02:03;;;;;;;38.23;18.70;;;;;;;9.50;80.52;100490.13;5012501;28;20235;-66
2022/11/14 04:04:31;;;;;;;32.20;17.67;;;;;;;9.48;80.70;100484.97;5012038;28;20750;-66
2022/11/14 04:06:58;;;;;;;33.63;17.73;;;;;;;9.53;80.65;100481.91;5009285;28;20216;-66
2022/11/14 04:09:26;;;;;;;35.33;16.97;;;;;;;9.54;80.50;100483.56;5006857;28;20263;-65
2022/11/14 04:11:54;;;;;;;31.73;17.07;;;;;;;9.61;80.37;100484.66;5015111;28;20290;-66
2022/11/14 04:14:21;;;;;;;36.50;18.33;;;;;;;9.63;79.39;100483.56;5009093;28;20209;-66
2022/11/14 04:16:49;;;;;;;35.30;18.10;;;;;;;9.55;80.14;100479.94;5010747;28;20220;-66
2022/11/14 04:19:18;;;;;;;33.50;17.27;;;;;;;9.53;80.36;100477.44;5014167;28;20267;-66
2022/11/14 04:21:45;;;;;;;28.10;15.83;;;;;;;9.52;80.72;100482.88;5006082;28;20587;-66
2022/11/14 04:24:13;;;;;;;31.00;16.40;;;;;;;9.52;80.68;100474.94;5014730;28;20226;-66
2022/11/14 04:26:41;;;;;;;31.77;17.30;;;;;;;9.55;80.65;100474.66;5015558;28;20212;-66
2022/11/14 04:29:08;;;;;;;31.70;15.20;;;;;;;9.56;80.48;100465.75;5012203;28;20231;-65
2022/11/14 04:31:36;;;;;;;30.43;15.83;;;;;;;9.48;80.66;100466.44;5016906;28;20212;-65
2022/11/14 04:34:04;;;;;;;25.83;14.73;;;;;;;9.39;81.38;100465.47;5014948;28;20213;-66
2022/11/14 04:36:33;;;;;;;31.30;16.80;;;;;;;9.45;81.44;100464.06;5020010;28;20263;-66
2022/11/14 04:39:00;;;;;;;29.20;15.70;;;;;;;9.47;81.44;100470.06;5013776;28;20225;-64
2022/11/14 04:41:28;;;;;;;26.40;14.87;;;;;;;9.57;81.26;100468.25;5010220;28;20259;-67
2022/11/14 04:43:55;;;;;;;25.70;15.23;;;;;;;9.58;80.86;100467.28;5014434;28;20212;-64
2022/11/14 04:46:23;;;;;;;28.10;15.30;;;;;;;9.62;80.65;100460.72;5013567;28;20274;-65
2022/11/14 04:48:51;;;;;;;26.80;15.87;;;;;;;9.54;79.90;100457.09;5013986;28;20214;-64
2022/11/14 04:51:18;;;;;;;29.80;16.37;;;;;;;9.47;80.02;100456.00;5013317;28;20216;-64
2022/11/14 04:53:47;;;;;;;30.40;16.07;;;;;;;9.30;81.25;100455.75;5015866;28;20408;-64
2022/11/14 04:56:15;;;;;;;31.63;16.73;;;;;;;9.20;82.29;100454.06;5016584;28;20259;-63
2022/11/14 04:58:43;;;;;;;28.47;16.07;;;;;;;9.23;82.91;100449.34;5014522;28;20235;-64
2022/11/14 05:01:11;;;;;;;30.40;17.00;;;;;;;9.34;82.57;100451.81;5015248;28;20238;-65
2022/11/14 05:03:39;;;;;;;28.27;15.57;;;;;;;9.43;81.47;100458.91;5013493;28;20247;-64
2022/11/14 05:06:07;;;;;;;31.43;16.87;;;;;;;9.44;81.08;100460.59;5021332;28;21165;-65
2022/11/14 05:08:35;;;;;;;30.07;16.40;;;;;;;9.37;81.71;100461.31;5017436;28;20224;-65
2022/11/14 05:11:04;;;;;;;30.17;16.87;;;;;;;9.31;81.07;100459.22;5013268;28;20254;-65
2022/11/14 05:13:32;;;;;;;26.83;14.30;;;;;;;9.15;81.38;100451.81;5014820;28;20259;-65
2022/11/14 05:16:00;;;;;;;25.70;15.87;;;;;;;9.07;81.94;100451.69;5012648;28;20224;-65
2022/11/14 05:18:28;;;;;;;23.40;14.50;;;;;;;9.03;81.68;100450.31;5015393;28;20212;-65
2022/11/14 05:20:58;;;;;;;27.23;14.53;;;;;;;9.00;82.33;100443.47;5022019;28;20247;-65
2022/11/14 05:23:27;;;;;;;25.13;14.90;;;;;;;9.03;82.26;100443.22;5019836;28;20211;-65
2022/11/14 05:26:02;;;;;;;32.20;15.90;;;;;;;9.11;82.13;100439.88;5016972;28;20219;-65
2022/11/14 05:28:31;;;;;;;27.43;15.50;;;;;;;9.11;81.69;100437.22;5023236;28;20807;-65
2022/11/14 05:31:04;;;;;;;22.13;13.00;;;;;;;9.19;81.06;100444.44;5014795;28;20227;-66
2022/11/14 05:33:32;;;;;;;24.03;13.80;;;;;;;9.22;79.05;100447.66;5015744;28;20702;-65
2022/11/14 05:36:02;;;;;;;23.27;13.77;;;;;;;9.06;78.65;100452.66;5018930;28;20214;-65
2022/11/14 05:38:30;;;;;;;22.77;13.43;;;;;;;8.94;79.03;100453.78;5016112;28;20204;-66
2022/11/14 05:40:59;;;;;;;23.73;14.23;;;;;;;8.83;79.74;100449.44;5017482;28;20829;-66
2022/11/14 05:43:30;;;;;;;24.33;14.37;;;;;;;8.80;80.12;100441.78;5021121;28;20270;-66
2022/11/14 05:45:59;;;;;;;25.13;13.67;;;;;;;8.88;80.92;100446.41;5019217;28;20260;-66
2022/11/14 05:48:27;;;;;;;25.43;13.53;;;;;;;8.80;78.70;100435.66;5015842;28;20220;-66
2022/11/14 05:50:56;;;;;;;24.63;13.60;;;;;;;8.77;78.69;100441.22;5012400;28;20204;-64
2022/11/14 05:53:25;;;;;;;23.03;13.23;;;;;;;8.59;79.27;100433.97;5018768;28;20545;-64
2022/11/14 05:55:54;;;;;;;27.17;14.47;;;;;;;8.61;79.91;100431.19;5015611;28;20208;-66
2022/11/14 05:58:22;;;;;;;20.50;12.03;;;;;;;8.56;79.90;100422.81;5012080;28;20211;-64
2022/11/14 06:00:51;;;;;;;26.03;13.40;;;;;;;8.47;80.90;100434.22;5010082;28;20232;-65
2022/11/14 06:03:21;;;;;;;25.17;13.60;;;;;;;8.50;80.36;100429.50;5015934;28;20810;-65
2022/11/14 06:05:48;;;;;;;25.60;13.37;;;;;;;8.48;81.01;100435.88;5014821;28;20658;-65
2022/11/14 06:08:16;;;;;;;21.83;12.50;;;;;;;8.52;80.59;100438.13;5013416;28;20222;-64
2022/11/14 06:10:44;;;;;;;28.03;14.40;;;;;;;8.55;80.37;100432.56;5011536;28;20783;-64
2022/11/14 06:13:11;;;;;;;25.57;14.83;;;;;;;8.42;81.24;100442.56;5016698;28;20225;-64
2022/11/14 06:15:39;;;;;;;32.50;15.50;;;;;;;8.46;81.40;100432.53;5015599;28;20219;-64
2022/11/14 06:18:08;;;;;;;28.00;14.97;;;;;;;8.40;81.74;100430.44;5018089;28;20275;-64
2022/11/14 06:20:36;;;;;;;28.17;14.63;;;;;;;8.36;82.57;100443.06;5011061;28;20239;-64
2022/11/14 06:23:04;;;;;;;30.23;14.93;;;;;;;8.40;82.48;100428.63;5017892;28;20218;-65
2022/11/14 06:25:31;;;;;;;31.30;14.60;;;;;;;8.39;83.57;100426.97;5015754;28;20222;-65
2022/11/14 06:27:59;;;;;;;30.53;15.20;;;;;;;8.53;83.36;100418.63;5020675;28;20206;-65
2022/11/14 06:30:27;;;;;;;32.70;15.87;;;;;;;8.61;82.13;100417.97;5012843;28;20289;-66
2022/11/14 06:32:57;;;;;;;35.70;15.87;;;;;;;8.56;82.35;100418.38;5013978;28;20225;-65
2022/11/14 06:35:27;;;;;;;33.37;15.63;;;;;;;8.64;82.15;100415.88;5017299;28;20203;-65
2022/11/14 06:37:54;;;;;;;33.70;15.67;;;;;;;8.58;82.16;100416.44;5016627;28;20215;-65
2022/11/14 06:40:22;;;;;;;37.63;16.30;;;;;;;8.55;82.42;100415.88;5010264;28;20241;-65
2022/11/14 06:42:50;;;;;;;37.17;16.63;;;;;;;8.57;82.75;100414.75;5019010;28;20203;-65
2022/11/14 06:45:17;;;;;;;36.47;15.57;;;;;;;8.63;82.16;100422.13;5014866;28;20239;-65
2022/11/14 06:47:45;;;;;;;40.27;15.97;;;;;;;8.64;82.26;100421.16;5017611;28;20286;-65
2022/11/14 06:50:13;;;;;;;36.33;15.70;;;;;;;8.56;82.82;100423.66;5015020;28;20212;-64
2022/11/14 06:52:42;;;;;;;36.70;15.77;;;;;;;8.63;83.37;100422.13;5016606;28;20703;-64
2022/11/14 06:55:10;;;;;;;36.07;15.13;;;;;;;8.77;82.93;100426.22;5011457;28;20229;-64
2022/11/14 06:57:37;;;;;;;29.83;13.83;;;;;;;8.87;81.45;100420.94;5013486;28;20665;-64
2022/11/14 07:00:06;;;;;;;34.77;15.17;;;;;;;8.81;82.22;100422.31;5012649;28;20231;-64
2022/11/14 07:02:34;;;;;;;32.67;14.70;;;;;;;8.88;82.34;100422.59;5014096;28;22313;-65
2022/11/14 07:05:02;;;;;;;29.70;13.90;;;;;;;8.98;81.47;100413.69;5011451;28;20218;-65
2022/11/14 07:07:30;;;;;;;32.30;14.87;;;;;;;9.07;81.02;100423.44;5014037;28;20227;-64
2022/11/14 07:09:59;;;;;;;28.80;13.40;;;;;;;9.17;80.51;100418.13;5015354;28;20236;-63
2022/11/14 07:12:28;;;;;;;32.63;14.60;;;;;;;9.25;80.14;100415.63;5013235;28;20208;-63
2022/11/14 07:14:56;;;;;;;32.03;15.10;;;;;;;9.32;79.51;100422.00;5019017;28;20208;-60
2022/11/14 07:17:23;;;;;;;30.70;14.90;;;;;;;9.23;78.86;100429.97;5013730;28;20216;-61
2022/11/14 07:19:57;;;;;;;36.43;16.57;;;;;;;9.17;79.63;100438.47;5018136;28;22232;-61
2022/11/14 07:22:25;;;;;;;34.23;16.63;;;;;;;9.21;80.08;100435.41;5012712;28;20556;-61
2022/11/14 07:24:52;;;;;;;35.30;18.30;;;;;;;9.33;78.62;100434.28;5011059;28;20275;-61
2022/11/14 07:27:21;;;;;;;35.43;18.27;;;;;;;9.25;78.78;100439.44;5010902;28;20263;-61
2022/11/14 07:29:49;;;;;;;36.77;18.70;;;;;;;9.19;79.12;100434.72;5010580;28;20225;-61
2022/11/14 07:32:17;;;;;;;42.20;20.53;;;;;;;9.22;79.19;100436.25;5010005;28;20255;-62
2022/11/14 07:34:44;;;;;;;47.10;23.20;;;;;;;9.26;78.82;100443.75;5014013;28;20221;-61
2022/11/14 07:37:12;;;;;;;44.83;22.97;;;;;;;9.18;79.28;100453.38;5020644;28;20217;-60
2022/11/14 07:39:40;;;;;;;49.17;22.50;;;;;;;9.14;78.94;100447.53;5015094;28;20212;-60
2022/11/14 07:42:07;;;;;;;37.67;20.13;;;;;;;9.13;79.78;100448.50;5017631;28;20209;-60
2022/11/14 07:44:36;;;;;;;38.33;18.33;;;;;;;9.19;79.69;100440.00;5018130;28;20219;-60
2022/11/14 07:47:04;;;;;;;36.50;18.37;;;;;;;9.28;79.58;100440.97;5022016;28;20218;-60
2022/11/14 07:49:33;;;;;;;29.33;16.00;;;;;;;9.30;79.24;100442.50;5021873;28;20254;-61
2022/11/14 07:52:00;;;;;;;30.47;15.63;;;;;;;9.30;78.87;100450.44;5020553;28;20212;-61
2022/11/14 07:54:28;;;;;;;30.47;14.40;;;;;;;9.24;79.22;100460.72;5022715;28;20304;-61
2022/11/14 07:56:56;;;;;;;29.67;15.40;;;;;;;9.23;79.46;100452.00;5017515;28;20637;-58
2022/11/14 07:59:24;;;;;;;29.13;14.53;;;;;;;9.26;79.27;100459.63;5018517;28;20643;-61
2022/11/14 08:01:53;;;;;;;28.23;14.77;;;;;;;9.28;79.58;100449.75;5020828;28;20282;-61
2022/11/14 08:04:20;;;;;;;30.50;15.10;;;;;;;9.31;79.28;100453.94;5014881;28;20226;-61
2022/11/14 08:06:48;;;;;;;29.63;14.23;;;;;;;9.38;78.78;100447.94;5012599;28;20209;-61
2022/11/14 08:09:16;;;;;;;30.07;14.33;;;;;;;9.27;78.59;100456.00;5009150;28;20244;-60
2022/11/14 08:11:50;;;;;;;25.57;13.80;;;;;;;9.22;78.88;100465.34;5011261;28;20803;-62
2022/11/14 08:14:18;;;;;;;28.47;14.67;;;;;;;9.04;79.90;100465.22;5013074;28;20562;-62
2022/11/14 08:16:45;;;;;;;27.10;14.37;;;;;;;8.95;80.75;100461.59;5010501;28;20215;-60
2022/11/14 08:19:15;;;;;;;26.40;15.33;;;;;;;8.99;81.13;100468.25;5005168;28;20244;-61
2022/11/14 08:21:43;;;;;;;27.73;13.47;;;;;;;9.01;80.79;100466.31;5010325;28;20236;-61
2022/11/14 08:24:11;;;;;;;28.10;13.40;;;;;;;8.93;80.80;100460.88;5017159;28;20687;-60
2022/11/14 08:26:39;;;;;;;29.50;14.57;;;;;;;8.77;82.60;100449.16;5013144;28;20219;-61
2022/11/14 08:29:07;;;;;;;28.13;13.97;;;;;;;8.78;83.38;100448.19;5008722;28;20251;-61
2022/11/14 08:31:34;;;;;;;29.27;14.37;;;;;;;8.88;83.22;100444.56;5003978;28;20212;-60
2022/11/14 08:34:02;;;;;;;32.77;15.83;;;;;;;9.05;82.48;100445.72;5011885;28;20216;-60
2022/11/14 08:36:31;;;;;;;35.30;15.63;;;;;;;9.12;81.87;100449.47;5013695;28;20220;-62
2022/11/14 08:38:59;;;;;;;34.57;16.50;;;;;;;9.21;81.47;100451.28;5015746;28;20225;-62
2022/11/14 08:41:29;;;;;;;34.23;15.93;;;;;;;9.33;81.02;100444.84;5015622;28;20235;-61
2022/11/14 08:43:56;;;;;;;34.47;16.03;;;;;;;9.46;80.03;100438.44;5016663;28;20213;-61
2022/11/14 08:46:24;;;;;;;35.53;16.37;;;;;;;9.48;79.50;100447.09;5014565;28;20208;-61
2022/11/14 08:48:52;;;;;;;28.07;14.50;;;;;;;9.58;79.10;100443.44;5013556;28;20240;-61
2022/11/14 08:51:19;;;;;;;26.73;14.80;;;;;;;9.73;78.51;100443.81;5013944;28;20207;-61
2022/11/14 08:53:50;;;;;;;29.70;14.63;;;;;;;9.86;77.59;100436.38;5011066;28;20731;-61
2022/11/14 08:56:18;;;;;;;30.63;15.67;;;;;;;10.01;76.83;100439.44;5015922;28;20381;-62
2022/11/14 08:58:45;;;;;;;27.13;14.43;;;;;;;10.12;76.24;100437.41;5016120;28;20220;-61
2022/11/14 09:01:13;;;;;;;27.10;14.83;;;;;;;10.13;75.81;100431.13;5020936;28;20240;-61
2022/11/14 09:03:41;;;;;;;27.20;15.23;;;;;;;10.21;75.81;100430.44;5012826;28;20574;-60
2022/11/14 09:06:08;;;;;;;30.07;15.23;;;;;;;11.10;72.91;100443.81;5014603;28;20210;-61
2022/11/14 09:08:36;;;;;;;27.70;15.50;;;;;;;11.20;70.31;100439.28;5016598;28;20264;-61
2022/11/14 09:11:06;;;;;;;24.33;14.07;;;;;;;11.01;70.42;100439.41;5021790;28;20232;-61
2022/11/14 09:13:36;;;;;;;25.20;14.50;;;;;;;10.74;71.08;100449.09;5015573;28;20213;-61
2022/11/14 09:16:04;;;;;;;25.87;14.23;;;;;;;10.50;72.31;100440.88;5014058;28;20218;-62
2022/11/14 09:18:32;;;;;;;27.43;13.67;;;;;;;10.25;73.34;100441.59;5021256;28;20217;-62
2022/11/14 09:21:01;;;;;;;25.80;14.67;;;;;;;10.13;74.03;100443.53;5015887;28;20237;-63
2022/11/14 09:23:29;;;;;;;28.63;15.33;;;;;;;10.07;74.85;100450.28;5015799;28;20301;-63
2022/11/14 09:25:58;;;;;;;28.03;15.10;;;;;;;9.95;75.78;100451.41;5013914;28;20210;-61
2022/11/14 09:28:27;;;;;;;25.57;14.23;;;;;;;9.97;76.40;100446.81;5014156;28;20213;-62
2022/11/14 09:31:00;;;;;;;26.03;14.30;;;;;;;9.99;76.30;100452.81;5017215;28;20217;-62
2022/11/14 09:33:27;;;;;;;24.03;14.23;;;;;;;9.95;76.08;100459.34;5010945;28;20228;-61
2022/11/14 09:35:57;;;;;;;23.60;13.07;;;;;;;9.93;76.38;100461.34;5013520;28;20566;-62
2022/11/14 09:38:25;;;;;;;25.40;14.07;;;;;;;10.03;76.33;100454.16;5014776;28;20213;-61
2022/11/14 09:41:04;;;;;;;24.57;13.07;;;;;;;10.11;75.53;100456.94;5009345;28;20865;-62
2022/11/14 09:43:46;;;;;;;23.70;12.53;;;;;;;10.20;74.66;100446.50;5015647;28;20201;-63
2022/11/14 09:46:20;;;;;;;25.00;14.33;;;;;;;10.18;74.53;100433.38;5017094;28;20212;-61
2022/11/14 09:48:49;;;;;;;25.00;14.10;;;;;;;10.26;74.49;100446.75;5015695;28;20206;-61
2022/11/14 09:51:20;;;;;;;22.83;12.97;;;;;;;10.34;73.83;100438.88;5010496;28;20260;-61
2022/11/14 09:53:54;;;;;;;24.77;14.13;;;;;;;10.31;73.81;100443.63;5012100;28;20200;-61
2022/11/14 09:56:24;;;;;;;24.30;13.37;;;;;;;10.24;74.26;100434.59;5017431;28;20857;-62
2022/11/14 09:58:55;;;;;;;21.57;13.07;;;;;;;10.21;74.97;100429.59;5021038;28;20212;-61
2022/11/14 10:01:34;;;;;;;20.40;12.70;;;;;;;10.29;74.93;100427.88;5018958;28;20233;-62
2022/11/14 10:04:13;;;;;;;24.43;13.90;;;;;;;10.41;74.35;100415.25;5013442;28;20290;-62
2022/11/14 10:06:53;;;;;;;24.67;13.33;;;;;;;10.47;74.08;100430.56;5007064;28;20213;-62
2022/11/14 10:09:36;;;;;;;25.77;14.47;;;;;;;10.47;74.14;100433.22;5012360;28;20717;-62
2022/11/14 10:12:11;;;;;;;23.07;12.47;;;;;;;10.49;73.84;100424.16;5010188;28;20213;-62
2022/11/14 10:15:02;;;;;;;22.20;12.30;;;;;;;10.55;73.27;100422.72;5012959;28;20217;-63
2022/11/14 10:17:44;;;;;;;20.33;12.30;;;;;;;10.78;72.75;100421.31;5011072;28;20214;-62
2022/11/14 10:20:20;;;;;;;21.90;13.50;;;;;;;11.18;71.94;100420.00;5009551;28;21475;-62
2022/11/14 10:23:01;;;;;;;20.83;12.63;;;;;;;11.59;69.96;100411.38;5007022;28;20350;-63
2022/11/14 10:25:34;;;;;;;19.60;12.00;;;;;;;11.70;68.73;100411.09;5017857;28;20579;-63
2022/11/14 10:28:30;;;;;;;19.40;11.83;;;;;;;11.73;68.25;100403.81;5017634;28;20209;-63
2022/11/14 10:31:07;;;;;;;22.87;12.30;;;;;;;12.11;67.71;100395.41;5007188;28;20364;-63
2022/11/14 10:33:46;;;;;;;23.83;12.80;;;;;;;13.05;65.30;100398.63;5012992;28;20235;-61
2022/11/14 10:36:28;;;;;;;19.77;12.47;;;;;;;14.01;62.93;100389.84;5012880;28;20233;-61
2022/11/14 10:39:04;;;;;;;18.50;11.77;;;;;;;14.85;60.04;100383.78;5012435;28;20205;-61
2022/11/14 10:41:32;;;;;;;16.77;11.37;;;;;;;15.59;56.99;100387.50;5012832;28;20220;-62
2022/11/14 10:44:26;;;;;;;16.33;12.03;;;;;;;15.56;55.03;100387.88;5021238;28;20209;-62
2022/11/14 10:47:01;;;;;;;18.00;11.70;;;;;;;15.27;54.95;100383.28;5017219;28;20290;-62
2022/11/14 10:49:32;;;;;;;18.00;11.87;;;;;;;14.96;55.45;100380.69;5020113;28;20282;-63
2022/11/14 10:52:04;;;;;;;16.60;10.50;;;;;;;15.13;55.46;100371.53;5013542;28;20202;-64
2022/11/14 10:54:39;;;;;;;17.33;11.70;;;;;;;15.13;55.51;100371.53;5017355;28;20212;-62
2022/11/14 10:57:15;;;;;;;20.87;12.83;;;;;;;15.54;53.66;100360.50;5023586;28;20201;-63
2022/11/14 10:59:43;;;;;;;15.40;11.27;;;;;;;15.82;53.09;100355.38;5015823;28;20205;-63
2022/11/14 11:02:12;;;;;;;16.80;10.87;;;;;;;15.98;52.26;100356.00;5019036;28;20220;-63
2022/11/14 11:04:41;;;;;;;17.80;11.63;;;;;;;16.17;51.90;100347.41;5009843;28;20210;-62
2022/11/14 11:13:04;;;;;;;15.73;11.63;;;;;;;17.30;48.99;100336.81;5020868;28;20612;-66
2022/11/14 11:15:39;;;;;;;17.77;11.67;;;;;;;17.72;48.33;100328.84;5019867;28;20205;-62
2022/11/14 11:18:25;;;;;;;19.33;11.70;;;;;;;18.78;45.97;100329.03;5016962;28;20219;-63
2022/11/14 11:21:05;;;;;;;13.67;10.43;;;;;;;20.32;42.74;100328.59;5017542;28;20213;-62
2022/11/14 11:23:47;;;;;;;16.70;10.87;;;;;;;20.50;41.97;100326.84;5017403;28;20283;-62
2022/11/14 11:26:21;;;;;;;16.50;11.43;;;;;;;20.22;42.65;100315.59;5024735;28;20205;-64
2022/11/14 11:29:03;;;;;;;19.10;10.73;;;;;;;19.82;42.67;100326.50;5017622;28;20219;-64
2022/11/14 11:31:49;;;;;;;13.93;10.47;;;;;;;18.57;44.84;100321.16;5017186;28;20197;-63